sensor_id;sensor_type;location;lat;lon;timestamp;temperature;humidity
75113;DHT22;63692;47.338;8.520;2023-10-13T05:15:15;12.50;99.90
75113;DHT22;63692;47.338;8.520;2023-10-13T05:18:03;12.50;99.90
75113;DHT22;63692;47.338;8.520;2023-10-13T06:02:04;12.40;99.90
75113;DHT22;63692;47.338;8.520;2023-10-13T06:04:49;12.40;99.90
75113;DHT22;63692;47.338;8.520;2023-10-13T06:07:33;12.40;99.90
75113;DHT22;63692;47.338;8.520;2023-10-13T06:10:18;12.30;99.90
75113;DHT22;63692;47.338;8.520;2023-10-13T06:13:02;12.30;99.90
75113;DHT22;63692;47.338;8.520;2023-10-13T06:15:46;12.30;99.90
75113;DHT22;63692;47.338;8.520;2023-10-13T06:18:30;12.40;99.90
75113;DHT22;63692;47.338;8.520;2023-10-13T06:21:14;12.40;99.90
75113;DHT22;63692;47.338;8.520;2023-10-13T06:23:58;12.50;99.90
75113;DHT22;63692;47.338;8.520;2023-10-13T06:26:43;12.50;99.90
75113;DHT22;63692;47.338;8.520;2023-10-13T06:29:27;12.40;99.90
75113;DHT22;63692;47.338;8.520;2023-10-13T06:31:52;12.40;99.90
75113;DHT22;63692;47.338;8.520;2023-10-13T06:34:18;12.40;99.90
75113;DHT22;63692;47.338;8.520;2023-10-13T06:36:46;12.40;99.90
75113;DHT22;63692;47.338;8.520;2023-10-13T06:39:12;12.40;99.90
75113;DHT22;63692;47.338;8.520;2023-10-13T06:41:57;12.30;99.90
75113;DHT22;63692;47.338;8.520;2023-10-13T06:44:22;12.30;99.90
75113;DHT22;63692;47.338;8.520;2023-10-13T06:46:48;12.40;99.90
75113;DHT22;63692;47.338;8.520;2023-10-13T06:49:15;12.40;99.90
75113;DHT22;63692;47.338;8.520;2023-10-13T06:51:43;12.50;99.90
75113;DHT22;63692;47.338;8.520;2023-10-13T06:54:12;12.50;99.90
75113;DHT22;63692;47.338;8.520;2023-10-13T06:56:45;12.50;99.90
75113;DHT22;63692;47.338;8.520;2023-10-13T06:59:12;12.50;99.90
75113;DHT22;63692;47.338;8.520;2023-10-13T07:01:39;12.50;99.90
75113;DHT22;63692;47.338;8.520;2023-10-13T07:04:07;12.50;99.90
75113;DHT22;63692;47.338;8.520;2023-10-13T07:06:41;12.60;99.90
75113;DHT22;63692;47.338;8.520;2023-10-13T07:09:16;12.60;99.90
75113;DHT22;63692;47.338;8.520;2023-10-13T07:12:03;12.60;99.90
75113;DHT22;63692;47.338;8.520;2023-10-13T07:14:32;12.60;99.90
75113;DHT22;63692;47.338;8.520;2023-10-13T07:17:05;12.70;99.90
75113;DHT22;63692;47.338;8.520;2023-10-13T07:19:33;12.80;99.90
75113;DHT22;63692;47.338;8.520;2023-10-13T07:22:00;12.90;99.90
75113;DHT22;63692;47.338;8.520;2023-10-13T07:24:45;12.90;99.90
75113;DHT22;63692;47.338;8.520;2023-10-13T07:27:15;12.90;99.90
75113;DHT22;63692;47.338;8.520;2023-10-13T07:29:48;13.00;99.90
75113;DHT22;63692;47.338;8.520;2023-10-13T07:32:22;13.00;99.90
75113;DHT22;63692;47.338;8.520;2023-10-13T07:34:53;13.10;99.90
75113;DHT22;63692;47.338;8.520;2023-10-13T07:37:22;13.10;99.90
75113;DHT22;63692;47.338;8.520;2023-10-13T07:39:51;13.20;99.90
75113;DHT22;63692;47.338;8.520;2023-10-13T07:42:16;13.20;99.90
75113;DHT22;63692;47.338;8.520;2023-10-13T07:44:45;13.30;99.90
75113;DHT22;63692;47.338;8.520;2023-10-13T07:47:14;13.30;99.90
75113;DHT22;63692;47.338;8.520;2023-10-13T07:49:40;13.40;99.90
75113;DHT22;63692;47.338;8.520;2023-10-13T07:52:10;13.40;99.90
75113;DHT22;63692;47.338;8.520;2023-10-13T07:54:46;13.40;99.90
75113;DHT22;63692;47.338;8.520;2023-10-13T07:57:15;13.50;99.90
75113;DHT22;63692;47.338;8.520;2023-10-13T07:59:42;13.50;99.90
75113;DHT22;63692;47.338;8.520;2023-10-13T08:02:14;13.60;99.90
75113;DHT22;63692;47.338;8.520;2023-10-13T08:04:58;13.60;99.90
75113;DHT22;63692;47.338;8.520;2023-10-13T08:07:24;13.70;99.90
75113;DHT22;63692;47.338;8.520;2023-10-13T08:09:54;13.70;99.90
75113;DHT22;63692;47.338;8.520;2023-10-13T08:12:19;13.80;99.90
75113;DHT22;63692;47.338;8.520;2023-10-13T08:14:50;13.90;99.90
75113;DHT22;63692;47.338;8.520;2023-10-13T08:17:34;13.90;99.90
75113;DHT22;63692;47.338;8.520;2023-10-13T08:20:00;14.00;99.90
75113;DHT22;63692;47.338;8.520;2023-10-13T08:22:36;14.10;99.90
75113;DHT22;63692;47.338;8.520;2023-10-13T08:25:04;14.20;99.90
75113;DHT22;63692;47.338;8.520;2023-10-13T08:27:48;14.20;99.90
75113;DHT22;63692;47.338;8.520;2023-10-13T08:30:15;14.30;99.90
75113;DHT22;63692;47.338;8.520;2023-10-13T08:33:07;14.40;99.90
75113;DHT22;63692;47.338;8.520;2023-10-13T08:35:52;14.40;99.90
75113;DHT22;63692;47.338;8.520;2023-10-13T08:38:41;14.50;99.90
75113;DHT22;63692;47.338;8.520;2023-10-13T08:41:16;14.60;99.90
75113;DHT22;63692;47.338;8.520;2023-10-13T08:43:45;14.70;99.90
75113;DHT22;63692;47.338;8.520;2023-10-13T08:46:16;14.80;99.90
75113;DHT22;63692;47.338;8.520;2023-10-13T08:48:58;14.80;99.90
75113;DHT22;63692;47.338;8.520;2023-10-13T08:51:36;14.90;99.90
75113;DHT22;63692;47.338;8.520;2023-10-13T08:54:32;15.00;99.90
75113;DHT22;63692;47.338;8.520;2023-10-13T08:57:01;15.00;99.90
75113;DHT22;63692;47.338;8.520;2023-10-13T08:59:55;15.10;99.90
75113;DHT22;63692;47.338;8.520;2023-10-13T09:02:22;15.20;99.90
75113;DHT22;63692;47.338;8.520;2023-10-13T09:05:09;15.20;99.90
75113;DHT22;63692;47.338;8.520;2023-10-13T09:07:55;15.30;99.90
75113;DHT22;63692;47.338;8.520;2023-10-13T09:10:24;15.40;99.90
75113;DHT22;63692;47.338;8.520;2023-10-13T09:12:58;15.40;99.90
75113;DHT22;63692;47.338;8.520;2023-10-13T09:15:29;15.40;99.90
75113;DHT22;63692;47.338;8.520;2023-10-13T09:18:28;15.50;99.90
75113;DHT22;63692;47.338;8.520;2023-10-13T09:21:26;15.60;99.90
75113;DHT22;63692;47.338;8.520;2023-10-13T09:24:09;15.70;99.90
75113;DHT22;63692;47.338;8.520;2023-10-13T09:26:43;15.80;99.90
75113;DHT22;63692;47.338;8.520;2023-10-13T09:29:20;15.90;99.90
75113;DHT22;63692;47.338;8.520;2023-10-13T09:31:47;16.00;99.90
75113;DHT22;63692;47.338;8.520;2023-10-13T09:34:21;16.00;99.90
75113;DHT22;63692;47.338;8.520;2023-10-13T09:36:49;16.10;99.90
75113;DHT22;63692;47.338;8.520;2023-10-13T09:39:24;16.20;99.90
75113;DHT22;63692;47.338;8.520;2023-10-13T09:42:09;16.20;99.90
75113;DHT22;63692;47.338;8.520;2023-10-13T09:44:36;16.30;99.90
75113;DHT22;63692;47.338;8.520;2023-10-13T09:47:03;16.40;99.90
75113;DHT22;63692;47.338;8.520;2023-10-13T09:49:49;16.40;99.90
75113;DHT22;63692;47.338;8.520;2023-10-13T09:52:18;16.50;99.90
75113;DHT22;63692;47.338;8.520;2023-10-13T09:57:45;16.50;99.90
75113;DHT22;63692;47.338;8.520;2023-10-13T10:00:17;16.60;99.90
75113;DHT22;63692;47.338;8.520;2023-10-13T10:03:15;16.70;99.90
75113;DHT22;63692;47.338;8.520;2023-10-13T10:06:05;16.80;99.90
75113;DHT22;63692;47.338;8.520;2023-10-13T10:09:04;16.90;99.90
75113;DHT22;63692;47.338;8.520;2023-10-13T10:17:08;17.20;99.90
75113;DHT22;63692;47.338;8.520;2023-10-13T10:19:54;17.20;99.90
75113;DHT22;63692;47.338;8.520;2023-10-13T10:22:31;17.30;99.90
75113;DHT22;63692;47.338;8.520;2023-10-13T10:25:05;17.30;99.90
75113;DHT22;63692;47.338;8.520;2023-10-13T10:27:57;17.40;99.90
75113;DHT22;63692;47.338;8.520;2023-10-13T10:30:24;17.50;99.90
75113;DHT22;63692;47.338;8.520;2023-10-13T10:32:54;17.50;99.90
75113;DHT22;63692;47.338;8.520;2023-10-13T10:35:25;17.50;99.90
75113;DHT22;63692;47.338;8.520;2023-10-13T10:38:14;17.60;99.90
75113;DHT22;63692;47.338;8.520;2023-10-13T10:41:16;17.60;99.90
75113;DHT22;63692;47.338;8.520;2023-10-13T10:43:49;17.70;99.90
75113;DHT22;63692;47.338;8.520;2023-10-13T10:46:25;17.70;99.90
75113;DHT22;63692;47.338;8.520;2023-10-13T10:51:19;17.80;99.90
75113;DHT22;63692;47.338;8.520;2023-10-13T10:53:52;17.80;99.90
75113;DHT22;63692;47.338;8.520;2023-10-13T10:56:22;17.90;99.90
75113;DHT22;63692;47.338;8.520;2023-10-13T10:58:56;18.00;99.90
75113;DHT22;63692;47.338;8.520;2023-10-13T11:01:23;18.00;99.90
75113;DHT22;63692;47.338;8.520;2023-10-13T11:04:05;18.10;99.90
75113;DHT22;63692;47.338;8.520;2023-10-13T11:06:47;18.20;99.80
75113;DHT22;63692;47.338;8.520;2023-10-13T11:09:13;18.20;99.80
75113;DHT22;63692;47.338;8.520;2023-10-13T11:11:52;18.30;99.50
75113;DHT22;63692;47.338;8.520;2023-10-13T11:14:27;18.30;99.90
75113;DHT22;63692;47.338;8.520;2023-10-13T11:16:54;18.30;99.90
75113;DHT22;63692;47.338;8.520;2023-10-13T11:19:37;18.30;99.80
75113;DHT22;63692;47.338;8.520;2023-10-13T11:25:03;18.40;99.70
75113;DHT22;63692;47.338;8.520;2023-10-13T11:27:39;18.50;98.70
75113;DHT22;63692;47.338;8.520;2023-10-13T11:30:18;18.50;99.10
75113;DHT22;63692;47.338;8.520;2023-10-13T11:33:04;18.60;98.90
75113;DHT22;63692;47.338;8.520;2023-10-13T11:35:34;18.60;98.40
75113;DHT22;63692;47.338;8.520;2023-10-13T11:38:32;18.70;98.20
75113;DHT22;63692;47.338;8.520;2023-10-13T11:41:15;18.70;98.50
75113;DHT22;63692;47.338;8.520;2023-10-13T11:43:45;18.70;97.70
75113;DHT22;63692;47.338;8.520;2023-10-13T11:46:20;18.80;97.40
75113;DHT22;63692;47.338;8.520;2023-10-13T11:49:10;18.80;96.70
75113;DHT22;63692;47.338;8.520;2023-10-13T11:51:39;18.80;97.10
75113;DHT22;63692;47.338;8.520;2023-10-13T11:54:09;18.90;96.80
75113;DHT22;63692;47.338;8.520;2023-10-13T11:56:34;18.90;96.50
75113;DHT22;63692;47.338;8.520;2023-10-13T11:59:00;19.00;96.10
75113;DHT22;63692;47.338;8.520;2023-10-13T12:01:28;19.00;95.60
75113;DHT22;63692;47.338;8.520;2023-10-13T12:04:12;19.10;95.90
75113;DHT22;63692;47.338;8.520;2023-10-13T12:07:02;19.10;95.60
75113;DHT22;63692;47.338;8.520;2023-10-13T12:09:50;19.20;95.10
75113;DHT22;63692;47.338;8.520;2023-10-13T12:14:47;19.30;94.90
75113;DHT22;63692;47.338;8.520;2023-10-13T12:17:28;19.30;94.60
75113;DHT22;63692;47.338;8.520;2023-10-13T12:20:03;19.40;94.50
75113;DHT22;63692;47.338;8.520;2023-10-13T12:22:35;19.50;94.90
75113;DHT22;63692;47.338;8.520;2023-10-13T12:25:01;19.60;94.70
75113;DHT22;63692;47.338;8.520;2023-10-13T12:27:33;19.70;94.20
75113;DHT22;63692;47.338;8.520;2023-10-13T12:30:14;19.70;94.00
75113;DHT22;63692;47.338;8.520;2023-10-13T12:32:48;19.90;93.90
75113;DHT22;63692;47.338;8.520;2023-10-13T12:35:25;20.00;94.20
75113;DHT22;63692;47.338;8.520;2023-10-13T12:38:01;20.00;94.00
75113;DHT22;63692;47.338;8.520;2023-10-13T12:40:42;20.20;93.60
75113;DHT22;63692;47.338;8.520;2023-10-13T12:43:26;20.30;94.10
75113;DHT22;63692;47.338;8.520;2023-10-13T12:46:10;20.40;94.00
75113;DHT22;63692;47.338;8.520;2023-10-13T12:48:54;20.50;93.60
75113;DHT22;63692;47.338;8.520;2023-10-13T12:51:39;20.50;93.60
75113;DHT22;63692;47.338;8.520;2023-10-13T12:54:06;20.60;93.50
75113;DHT22;63692;47.338;8.520;2023-10-13T12:56:45;20.70;93.60
75113;DHT22;63692;47.338;8.520;2023-10-13T12:59:11;20.70;93.30
75113;DHT22;63692;47.338;8.520;2023-10-13T13:01:41;20.80;93.20
75113;DHT22;63692;47.338;8.520;2023-10-13T13:04:11;20.90;93.10
75113;DHT22;63692;47.338;8.520;2023-10-13T13:06:57;21.00;93.00
75113;DHT22;63692;47.338;8.520;2023-10-13T13:09:22;21.10;91.70
75113;DHT22;63692;47.338;8.520;2023-10-13T13:11:54;21.30;91.00
75113;DHT22;63692;47.338;8.520;2023-10-13T13:14:24;21.40;91.10
75113;DHT22;63692;47.338;8.520;2023-10-13T13:19:34;21.60;88.90
75113;DHT22;63692;47.338;8.520;2023-10-13T13:22:04;21.80;89.20
75113;DHT22;63692;47.338;8.520;2023-10-13T13:24:31;22.00;88.00
75113;DHT22;63692;47.338;8.520;2023-10-13T13:26:57;22.20;81.80
75113;DHT22;63692;47.338;8.520;2023-10-13T13:29:29;22.50;79.70
75113;DHT22;63692;47.338;8.520;2023-10-13T13:31:55;22.70;78.40
75113;DHT22;63692;47.338;8.520;2023-10-13T13:34:21;22.80;78.60
75113;DHT22;63692;47.338;8.520;2023-10-13T13:36:47;23.00;75.90
75113;DHT22;63692;47.338;8.520;2023-10-13T13:39:19;23.20;78.20
75113;DHT22;63692;47.338;8.520;2023-10-13T13:41:54;23.30;79.30
75113;DHT22;63692;47.338;8.520;2023-10-13T13:46:50;23.80;72.90
75113;DHT22;63692;47.338;8.520;2023-10-13T13:49:17;24.00;74.30
75113;DHT22;63692;47.338;8.520;2023-10-13T13:51:54;24.30;66.80
75113;DHT22;63692;47.338;8.520;2023-10-13T13:54:19;24.70;65.00
75113;DHT22;63692;47.338;8.520;2023-10-13T13:56:46;25.00;64.00
75113;DHT22;63692;47.338;8.520;2023-10-13T13:59:11;25.40;60.20
75113;DHT22;63692;47.338;8.520;2023-10-13T14:01:43;25.80;60.00
75113;DHT22;63692;47.338;8.520;2023-10-13T14:04:10;26.00;58.30
75113;DHT22;63692;47.338;8.520;2023-10-13T14:06:37;26.40;56.60
75113;DHT22;63692;47.338;8.520;2023-10-13T14:09:04;26.60;55.70
75113;DHT22;63692;47.338;8.520;2023-10-13T14:12:01;26.80;55.90
75113;DHT22;63692;47.338;8.520;2023-10-13T14:14:45;27.20;53.60
75113;DHT22;63692;47.338;8.520;2023-10-13T14:17:23;27.20;54.40
75113;DHT22;63692;47.338;8.520;2023-10-13T14:19:58;27.30;52.10
75113;DHT22;63692;47.338;8.520;2023-10-13T14:22:27;27.50;52.20
75113;DHT22;63692;47.338;8.520;2023-10-13T14:24:52;27.70;55.10
75113;DHT22;63692;47.338;8.520;2023-10-13T14:27:22;27.80;54.70
75113;DHT22;63692;47.338;8.520;2023-10-13T14:29:51;28.00;55.60
75113;DHT22;63692;47.338;8.520;2023-10-13T14:32:21;28.10;54.90
75113;DHT22;63692;47.338;8.520;2023-10-13T14:39:53;28.30;55.10
75113;DHT22;63692;47.338;8.520;2023-10-13T14:42:26;28.40;54.50
75113;DHT22;63692;47.338;8.520;2023-10-13T14:44:52;28.40;52.30
75113;DHT22;63692;47.338;8.520;2023-10-13T14:47:22;28.40;53.30
75113;DHT22;63692;47.338;8.520;2023-10-13T14:49:56;28.40;50.40
75113;DHT22;63692;47.338;8.520;2023-10-13T14:52:27;28.50;50.10
75113;DHT22;63692;47.338;8.520;2023-10-13T14:54:57;28.60;49.80
75113;DHT22;63692;47.338;8.520;2023-10-13T14:57:23;28.70;49.00
75113;DHT22;63692;47.338;8.520;2023-10-13T14:59:53;28.80;52.00
75113;DHT22;63692;47.338;8.520;2023-10-13T15:02:20;29.00;53.00
75113;DHT22;63692;47.338;8.520;2023-10-13T15:04:49;28.90;53.40
75113;DHT22;63692;47.338;8.520;2023-10-13T15:07:15;28.90;54.10
75113;DHT22;63692;47.338;8.520;2023-10-13T15:09:42;28.90;51.60
75113;DHT22;63692;47.338;8.520;2023-10-13T15:12:11;29.00;52.00
75113;DHT22;63692;47.338;8.520;2023-10-13T15:14:40;28.70;54.20
75113;DHT22;63692;47.338;8.520;2023-10-13T15:17:09;28.50;55.60
75113;DHT22;63692;47.338;8.520;2023-10-13T15:19:38;28.40;50.80
75113;DHT22;63692;47.338;8.520;2023-10-13T15:22:07;28.50;52.50
75113;DHT22;63692;47.338;8.520;2023-10-13T15:24:34;28.40;53.00
75113;DHT22;63692;47.338;8.520;2023-10-13T15:27:11;28.20;50.80
75113;DHT22;63692;47.338;8.520;2023-10-13T15:29:36;27.80;52.70
75113;DHT22;63692;47.338;8.520;2023-10-13T15:32:02;27.50;54.60
75113;DHT22;63692;47.338;8.520;2023-10-13T15:34:28;27.10;54.60
75113;DHT22;63692;47.338;8.520;2023-10-13T15:36:56;26.80;52.50
75113;DHT22;63692;47.338;8.520;2023-10-13T15:39:22;26.50;51.90
75113;DHT22;63692;47.338;8.520;2023-10-13T15:41:57;26.30;59.40
75113;DHT22;63692;47.338;8.520;2023-10-13T15:44:28;25.80;61.30
75113;DHT22;63692;47.338;8.520;2023-10-13T15:46:57;25.50;60.60
75113;DHT22;63692;47.338;8.520;2023-10-13T15:49:24;25.20;62.80
75113;DHT22;63692;47.338;8.520;2023-10-13T15:51:53;25.10;60.70
75113;DHT22;63692;47.338;8.520;2023-10-13T15:54:21;24.80;64.50
75113;DHT22;63692;47.338;8.520;2023-10-13T15:56:49;24.60;65.20
75113;DHT22;63692;47.338;8.520;2023-10-13T15:59:16;24.40;59.50
75113;DHT22;63692;47.338;8.520;2023-10-13T16:01:42;24.30;60.40
75113;DHT22;63692;47.338;8.520;2023-10-13T16:04:08;24.20;63.80
75113;DHT22;63692;47.338;8.520;2023-10-13T16:06:40;24.10;66.60
75113;DHT22;63692;47.338;8.520;2023-10-13T16:09:06;23.80;62.60
75113;DHT22;63692;47.338;8.520;2023-10-13T16:11:42;23.80;61.20
75113;DHT22;63692;47.338;8.520;2023-10-13T16:14:11;23.70;59.10
75113;DHT22;63692;47.338;8.520;2023-10-13T16:16:41;23.70;59.40
75113;DHT22;63692;47.338;8.520;2023-10-13T16:19:10;23.60;58.10
75113;DHT22;63692;47.338;8.520;2023-10-13T16:21:36;23.50;58.30
75113;DHT22;63692;47.338;8.520;2023-10-13T16:24:05;23.50;59.80
75113;DHT22;63692;47.338;8.520;2023-10-13T16:26:31;23.40;58.40
